<?xml version="1.0" encoding="UTF-8" standalone="no" ?>
<gpx xmlns="http://www.topografix.com/GPX/1/1" xmlns:xsi="http://www.w3.org/2001/XMLSchema-instance" xsi:schemaLocation="http://www.topografix.com/GPX/1/1 http://www.topografix.com/GPX/1/1/gpx.xsd" version="1.1" creator="VisuGPX - https://www.visugpx.com">
  <metadata>
    <name>V-S23</name>
  </metadata>
  <trk>
    <name><![CDATA[Maison TOAC]]></name>
    <trkseg>
      <trkpt lat="43.5433" lon="1.45816">
        <ele>225.97196960449</ele>
        <time>2020-05-31T18:05:37.000Z</time>
      </trkpt>
      <trkpt lat="43.54335" lon="1.45796">
        <ele>226.28971862793</ele>
        <time>2020-05-31T18:05:37.002Z</time>
      </trkpt>
      <trkpt lat="43.54369" lon="1.45745">
        <ele>228.07208251953</ele>
        <time>2020-05-31T18:05:37.013Z</time>
      </trkpt>
      <trkpt lat="43.5438" lon="1.45738">
        <ele>228.2780456543</ele>
        <time>2020-05-31T18:05:37.025Z</time>
      </trkpt>
      <trkpt lat="43.54397" lon="1.45743">
        <ele>228.4326171875</ele>
        <time>2020-05-31T18:05:37.040Z</time>
      </trkpt>
      <trkpt lat="43.54408" lon="1.45712">
        <ele>228.93453979492</ele>
        <time>2020-05-31T18:05:37.059Z</time>
      </trkpt>
      <trkpt lat="43.54426" lon="1.4568">
        <ele>230.05334472656</ele>
        <time>2020-05-31T18:05:37.083Z</time>
      </trkpt>
      <trkpt lat="43.54426" lon="1.4568">
        <ele>230.05354309082</ele>
        <time>2020-05-31T18:05:37.107Z</time>
      </trkpt>
      <trkpt lat="43.54442" lon="1.45671">
        <ele>231.1383972168</ele>
        <time>2020-05-31T18:05:37.134Z</time>
      </trkpt>
      <trkpt lat="43.54439" lon="1.45618">
        <ele>231.64752197266</ele>
        <time>2020-05-31T18:05:37.167Z</time>
      </trkpt>
      <trkpt lat="43.54439" lon="1.45618">
        <ele>231.64701843262</ele>
        <time>2020-05-31T18:05:37.200Z</time>
      </trkpt>
      <trkpt lat="43.54439" lon="1.4561">
        <ele>231.75048828125</ele>
        <time>2020-05-31T18:05:37.234Z</time>
      </trkpt>
      <trkpt lat="43.54444" lon="1.45605">
        <ele>232.12379455566</ele>
        <time>2020-05-31T18:05:37.269Z</time>
      </trkpt>
      <trkpt lat="43.54448" lon="1.45588">
        <ele>232.58720397949</ele>
        <time>2020-05-31T18:05:37.306Z</time>
      </trkpt>
      <trkpt lat="43.54447" lon="1.45586">
        <ele>232.54858398438</ele>
        <time>2020-05-31T18:05:37.343Z</time>
      </trkpt>
      <trkpt lat="43.54442" lon="1.45576">
        <ele>232.34213256836</ele>
        <time>2020-05-31T18:05:37.382Z</time>
      </trkpt>
      <trkpt lat="43.54442" lon="1.45553">
        <ele>232.69003295898</ele>
        <time>2020-05-31T18:05:37.423Z</time>
      </trkpt>
      <trkpt lat="43.54522" lon="1.4543">
        <ele>233.94657897949</ele>
        <time>2020-05-31T18:05:37.484Z</time>
      </trkpt>
      <trkpt lat="43.54542" lon="1.45359">
        <ele>232.70932006836</ele>
        <time>2020-05-31T18:05:37.554Z</time>
      </trkpt>
      <trkpt lat="43.54586" lon="1.45315">
        <ele>232.16572570801</ele>
        <time>2020-05-31T18:05:37.632Z</time>
      </trkpt>
      <trkpt lat="43.54603" lon="1.45306">
        <ele>231.71357727051</ele>
        <time>2020-05-31T18:05:37.713Z</time>
      </trkpt>
      <trkpt lat="43.54616" lon="1.453">
        <ele>231.25016784668</ele>
        <time>2020-05-31T18:05:37.796Z</time>
      </trkpt>
      <trkpt lat="43.54629" lon="1.45315">
        <ele>231.30165100098</ele>
        <time>2020-05-31T18:05:37.882Z</time>
      </trkpt>
      <trkpt lat="43.54641" lon="1.45307">
        <ele>230.81269836426</ele>
        <time>2020-05-31T18:05:37.970Z</time>
      </trkpt>
      <trkpt lat="43.54645" lon="1.45293">
        <ele>230.40078735352</ele>
        <time>2020-05-31T18:05:38.060Z</time>
      </trkpt>
      <trkpt lat="43.54638" lon="1.45277">
        <ele>230.1690826416</ele>
        <time>2020-05-31T18:05:38.152Z</time>
      </trkpt>
      <trkpt lat="43.54648" lon="1.45259">
        <ele>229.24955749512</ele>
        <time>2020-05-31T18:05:38.247Z</time>
      </trkpt>
      <trkpt lat="43.54742" lon="1.45144">
        <ele>223.66690063477</ele>
        <time>2020-05-31T18:05:38.362Z</time>
      </trkpt>
      <trkpt lat="43.54822" lon="1.45022">
        <ele>222.62852478027</ele>
        <time>2020-05-31T18:05:38.496Z</time>
      </trkpt>
      <trkpt lat="43.54846" lon="1.44939">
        <ele>218.38681030273</ele>
        <time>2020-05-31T18:05:38.640Z</time>
      </trkpt>
      <trkpt lat="43.54867" lon="1.4484">
        <ele>216.02980041504</ele>
        <time>2020-05-31T18:05:38.796Z</time>
      </trkpt>
      <trkpt lat="43.54894" lon="1.4477">
        <ele>215.50872802734</ele>
        <time>2020-05-31T18:05:38.962Z</time>
      </trkpt>
      <trkpt lat="43.54946" lon="1.44664">
        <ele>207.35220336914</ele>
        <time>2020-05-31T18:05:39.142Z</time>
      </trkpt>
      <trkpt lat="43.54985" lon="1.44514">
        <ele>202.87208557129</ele>
        <time>2020-05-31T18:05:39.341Z</time>
      </trkpt>
      <trkpt lat="43.54994" lon="1.44435">
        <ele>198.06776428223</ele>
        <time>2020-05-31T18:05:39.549Z</time>
      </trkpt>
      <trkpt lat="43.54993" lon="1.44384">
        <ele>194.20108032227</ele>
        <time>2020-05-31T18:05:39.763Z</time>
      </trkpt>
      <trkpt lat="43.54976" lon="1.44315">
        <ele>190.80798339844</ele>
        <time>2020-05-31T18:05:39.986Z</time>
      </trkpt>
      <trkpt lat="43.54944" lon="1.44246">
        <ele>182.41514587402</ele>
        <time>2020-05-31T18:05:40.218Z</time>
      </trkpt>
      <trkpt lat="43.54933" lon="1.44206">
        <ele>177.89096069336</ele>
        <time>2020-05-31T18:05:40.455Z</time>
      </trkpt>
      <trkpt lat="43.54933" lon="1.44206">
        <ele>177.89115905762</ele>
        <time>2020-05-31T18:05:40.692Z</time>
      </trkpt>
      <trkpt lat="43.5492" lon="1.44122">
        <ele>171.33715820312</ele>
        <time>2020-05-31T18:05:40.939Z</time>
      </trkpt>
      <trkpt lat="43.54926" lon="1.44087">
        <ele>167.42231750488</ele>
        <time>2020-05-31T18:05:41.190Z</time>
      </trkpt>
      <trkpt lat="43.54927" lon="1.44079">
        <ele>166.49549865723</ele>
        <time>2020-05-31T18:05:41.442Z</time>
      </trkpt>
      <trkpt lat="43.54929" lon="1.4407">
        <ele>165.36273193359</ele>
        <time>2020-05-31T18:05:41.695Z</time>
      </trkpt>
      <trkpt lat="43.54947" lon="1.43966">
        <ele>155.74084472656</ele>
        <time>2020-05-31T18:05:41.961Z</time>
      </trkpt>
      <trkpt lat="43.54947" lon="1.43966">
        <ele>155.7406463623</ele>
        <time>2020-05-31T18:05:42.227Z</time>
      </trkpt>
      <trkpt lat="43.55004" lon="1.43983">
        <ele>158.87562561035</ele>
        <time>2020-05-31T18:05:42.502Z</time>
      </trkpt>
      <trkpt lat="43.55122" lon="1.44043">
        <ele>164.26026916504</ele>
        <time>2020-05-31T18:05:42.797Z</time>
      </trkpt>
      <trkpt lat="43.55122" lon="1.44043">
        <ele>164.25735473633</ele>
        <time>2020-05-31T18:05:43.092Z</time>
      </trkpt>
      <trkpt lat="43.55122" lon="1.44043">
        <ele>164.25665283203</ele>
        <time>2020-05-31T18:05:43.387Z</time>
      </trkpt>
      <trkpt lat="43.55122" lon="1.44043">
        <ele>164.25796508789</ele>
        <time>2020-05-31T18:05:43.682Z</time>
      </trkpt>
      <trkpt lat="43.55148" lon="1.44056">
        <ele>163.36985778809</ele>
        <time>2020-05-31T18:05:43.982Z</time>
      </trkpt>
      <trkpt lat="43.55376" lon="1.44101">
        <ele>162.57829284668</ele>
        <time>2020-05-31T18:05:44.319Z</time>
      </trkpt>
      <trkpt lat="43.55531" lon="1.44098">
        <ele>156.57276916504</ele>
        <time>2020-05-31T18:05:44.680Z</time>
      </trkpt>
      <trkpt lat="43.55735" lon="1.44125">
        <ele>159.87663269043</ele>
        <time>2020-05-31T18:05:45.074Z</time>
      </trkpt>
      <trkpt lat="43.55769" lon="1.44114">
        <ele>159.9660949707</ele>
        <time>2020-05-31T18:05:45.474Z</time>
      </trkpt>
      <trkpt lat="43.55814" lon="1.44075">
        <ele>160.69389343262</ele>
        <time>2020-05-31T18:05:45.882Z</time>
      </trkpt>
      <trkpt lat="43.55857" lon="1.44034">
        <ele>158.51786804199</ele>
        <time>2020-05-31T18:05:46.299Z</time>
      </trkpt>
      <trkpt lat="43.5593" lon="1.43997">
        <ele>155.01655578613</ele>
        <time>2020-05-31T18:05:46.728Z</time>
      </trkpt>
      <trkpt lat="43.56052" lon="1.43998">
        <ele>149.44596862793</ele>
        <time>2020-05-31T18:05:47.177Z</time>
      </trkpt>
      <trkpt lat="43.5626" lon="1.43945">
        <ele>151.64456176758</ele>
        <time>2020-05-31T18:05:47.660Z</time>
      </trkpt>
      <trkpt lat="43.56328" lon="1.43935">
        <ele>149.29942321777</ele>
        <time>2020-05-31T18:05:48.153Z</time>
      </trkpt>
      <trkpt lat="43.56359" lon="1.43937">
        <ele>149.47958374023</ele>
        <time>2020-05-31T18:05:48.651Z</time>
      </trkpt>
      <trkpt lat="43.56391" lon="1.43949">
        <ele>151.84811401367</ele>
        <time>2020-05-31T18:05:49.155Z</time>
      </trkpt>
      <trkpt lat="43.56479" lon="1.43979">
        <ele>155.34257507324</ele>
        <time>2020-05-31T18:05:49.673Z</time>
      </trkpt>
      <trkpt lat="43.56601" lon="1.43984">
        <ele>154.4017791748</ele>
        <time>2020-05-31T18:05:50.211Z</time>
      </trkpt>
      <trkpt lat="43.56601" lon="1.43984">
        <ele>154.4017791748</ele>
        <time>2020-05-31T18:05:50.749Z</time>
      </trkpt>
      <trkpt lat="43.56709" lon="1.43986">
        <ele>157.72099304199</ele>
        <time>2020-05-31T18:05:51.304Z</time>
      </trkpt>
      <trkpt lat="43.57058" lon="1.4392">
        <ele>141.9910736084</ele>
        <time>2020-05-31T18:05:51.915Z</time>
      </trkpt>
      <trkpt lat="43.57058" lon="1.4392">
        <ele>141.99217224121</ele>
        <time>2020-05-31T18:05:52.526Z</time>
      </trkpt>
      <trkpt lat="43.57101" lon="1.43909">
        <ele>146.2389831543</ele>
        <time>2020-05-31T18:05:53.144Z</time>
      </trkpt>
      <trkpt lat="43.57138" lon="1.43904">
        <ele>145.45509338379</ele>
        <time>2020-05-31T18:05:53.768Z</time>
      </trkpt>
      <trkpt lat="43.57138" lon="1.43904">
        <ele>145.45509338379</ele>
        <time>2020-05-31T18:05:54.392Z</time>
      </trkpt>
      <trkpt lat="43.57182" lon="1.43881">
        <ele>142.65222167969</ele>
        <time>2020-05-31T18:05:55.024Z</time>
      </trkpt>
      <trkpt lat="43.57205" lon="1.43864">
        <ele>140.86689758301</ele>
        <time>2020-05-31T18:05:55.660Z</time>
      </trkpt>
      <trkpt lat="43.57252" lon="1.43814">
        <ele>143.67681884766</ele>
        <time>2020-05-31T18:05:56.306Z</time>
      </trkpt>
      <trkpt lat="43.57257" lon="1.43809">
        <ele>144.44917297363</ele>
        <time>2020-05-31T18:05:56.953Z</time>
      </trkpt>
      <trkpt lat="43.57373" lon="1.437">
        <ele>142.56072998047</ele>
        <time>2020-05-31T18:05:57.622Z</time>
      </trkpt>
      <trkpt lat="43.574" lon="1.43696">
        <ele>143.58279418945</ele>
        <time>2020-05-31T18:05:58.295Z</time>
      </trkpt>
      <trkpt lat="43.57473" lon="1.43736">
        <ele>145.7353515625</ele>
        <time>2020-05-31T18:05:58.981Z</time>
      </trkpt>
      <trkpt lat="43.5748" lon="1.4374">
        <ele>146.0181427002</ele>
        <time>2020-05-31T18:05:59.668Z</time>
      </trkpt>
      <trkpt lat="43.57498" lon="1.43747">
        <ele>146.66175842285</ele>
        <time>2020-05-31T18:06:00.358Z</time>
      </trkpt>
      <trkpt lat="43.57511" lon="1.43739">
        <ele>147.53709411621</ele>
        <time>2020-05-31T18:06:01.051Z</time>
      </trkpt>
      <trkpt lat="43.57545" lon="1.43653">
        <ele>146.04473876953</ele>
        <time>2020-05-31T18:06:01.755Z</time>
      </trkpt>
      <trkpt lat="43.57558" lon="1.4364">
        <ele>145.34156799316</ele>
        <time>2020-05-31T18:06:02.461Z</time>
      </trkpt>
      <trkpt lat="43.57623" lon="1.43628">
        <ele>145.76654052734</ele>
        <time>2020-05-31T18:06:03.178Z</time>
      </trkpt>
      <trkpt lat="43.5766" lon="1.43633">
        <ele>146.8349609375</ele>
        <time>2020-05-31T18:06:03.901Z</time>
      </trkpt>
      <trkpt lat="43.57676" lon="1.43634">
        <ele>146.99905395508</ele>
        <time>2020-05-31T18:06:04.626Z</time>
      </trkpt>
      <trkpt lat="43.57723" lon="1.43641">
        <ele>145.49189758301</ele>
        <time>2020-05-31T18:06:05.359Z</time>
      </trkpt>
      <trkpt lat="43.57737" lon="1.43643">
        <ele>145.00314331055</ele>
        <time>2020-05-31T18:06:06.094Z</time>
      </trkpt>
      <trkpt lat="43.57749" lon="1.43644">
        <ele>144.52645874023</ele>
        <time>2020-05-31T18:06:06.831Z</time>
      </trkpt>
      <trkpt lat="43.57749" lon="1.43644">
        <ele>144.52687072754</ele>
        <time>2020-05-31T18:06:07.568Z</time>
      </trkpt>
      <trkpt lat="43.57771" lon="1.4365">
        <ele>143.86514282227</ele>
        <time>2020-05-31T18:06:08.309Z</time>
      </trkpt>
      <trkpt lat="43.57871" lon="1.43675">
        <ele>140.63011169434</ele>
        <time>2020-05-31T18:06:09.066Z</time>
      </trkpt>
      <trkpt lat="43.57943" lon="1.43711">
        <ele>141.47969055176</ele>
        <time>2020-05-31T18:06:09.835Z</time>
      </trkpt>
      <trkpt lat="43.5802" lon="1.43762">
        <ele>142.06954956055</ele>
        <time>2020-05-31T18:06:10.618Z</time>
      </trkpt>
      <trkpt lat="43.58119" lon="1.4384">
        <ele>145.6223449707</ele>
        <time>2020-05-31T18:06:11.419Z</time>
      </trkpt>
      <trkpt lat="43.58127" lon="1.43846">
        <ele>145.93128967285</ele>
        <time>2020-05-31T18:06:12.222Z</time>
      </trkpt>
      <trkpt lat="43.58127" lon="1.43846">
        <ele>145.93098449707</ele>
        <time>2020-05-31T18:06:13.025Z</time>
      </trkpt>
      <trkpt lat="43.58246" lon="1.43915">
        <ele>147.8176574707</ele>
        <time>2020-05-31T18:06:13.848Z</time>
      </trkpt>
      <trkpt lat="43.58297" lon="1.43939">
        <ele>148.1008605957</ele>
        <time>2020-05-31T18:06:14.680Z</time>
      </trkpt>
      <trkpt lat="43.58385" lon="1.43963">
        <ele>148.05949401855</ele>
        <time>2020-05-31T18:06:15.526Z</time>
      </trkpt>
      <trkpt lat="43.584" lon="1.43974">
        <ele>148.57438659668</ele>
        <time>2020-05-31T18:06:16.375Z</time>
      </trkpt>
      <trkpt lat="43.584" lon="1.43974">
        <ele>148.57438659668</ele>
        <time>2020-05-31T18:06:17.224Z</time>
      </trkpt>
      <trkpt lat="43.58401" lon="1.43975">
        <ele>148.62586975098</ele>
        <time>2020-05-31T18:06:18.073Z</time>
      </trkpt>
      <trkpt lat="43.58407" lon="1.4398">
        <ele>148.88333129883</ele>
        <time>2020-05-31T18:06:18.923Z</time>
      </trkpt>
      <trkpt lat="43.58409" lon="1.43931">
        <ele>145.24644470215</ele>
        <time>2020-05-31T18:06:19.779Z</time>
      </trkpt>
      <trkpt lat="43.58412" lon="1.43883">
        <ele>140.89735412598</ele>
        <time>2020-05-31T18:06:20.641Z</time>
      </trkpt>
      <trkpt lat="43.58412" lon="1.43883">
        <ele>140.90367126465</ele>
        <time>2020-05-31T18:06:21.503Z</time>
      </trkpt>
      <trkpt lat="43.58412" lon="1.43883">
        <ele>140.90548706055</ele>
        <time>2020-05-31T18:06:22.365Z</time>
      </trkpt>
      <trkpt lat="43.58412" lon="1.43883">
        <ele>140.90367126465</ele>
        <time>2020-05-31T18:06:23.227Z</time>
      </trkpt>
      <trkpt lat="43.58418" lon="1.4378">
        <ele>138.97903442383</ele>
        <time>2020-05-31T18:06:24.101Z</time>
      </trkpt>
      <trkpt lat="43.58418" lon="1.4378">
        <ele>138.97882080078</ele>
        <time>2020-05-31T18:06:24.975Z</time>
      </trkpt>
      <trkpt lat="43.58419" lon="1.4374">
        <ele>138.46412658691</ele>
        <time>2020-05-31T18:06:25.853Z</time>
      </trkpt>
      <trkpt lat="43.58421" lon="1.43698">
        <ele>138.99186706543</ele>
        <time>2020-05-31T18:06:26.736Z</time>
      </trkpt>
      <trkpt lat="43.58444" lon="1.43187">
        <ele>139.13467407227</ele>
        <time>2020-05-31T18:06:27.679Z</time>
      </trkpt>
      <trkpt lat="43.58447" lon="1.43148">
        <ele>139</ele>
        <time>2020-05-31T18:06:28.626Z</time>
      </trkpt>
      <trkpt lat="43.58447" lon="1.43148">
        <ele>139</ele>
        <time>2020-05-31T18:06:29.573Z</time>
      </trkpt>
      <trkpt lat="43.58456" lon="1.43088">
        <ele>139</ele>
        <time>2020-05-31T18:06:30.528Z</time>
      </trkpt>
      <trkpt lat="43.58488" lon="1.42901">
        <ele>144.89508056641</ele>
        <time>2020-05-31T18:06:31.505Z</time>
      </trkpt>
      <trkpt lat="43.58507" lon="1.42863">
        <ele>143.98303222656</ele>
        <time>2020-05-31T18:06:32.487Z</time>
      </trkpt>
      <trkpt lat="43.58515" lon="1.42847">
        <ele>144.57516479492</ele>
        <time>2020-05-31T18:06:33.472Z</time>
      </trkpt>
      <trkpt lat="43.58518" lon="1.42845">
        <ele>144.60111999512</ele>
        <time>2020-05-31T18:06:34.457Z</time>
      </trkpt>
      <trkpt lat="43.58523" lon="1.42848">
        <ele>144.74026489258</ele>
        <time>2020-05-31T18:06:35.443Z</time>
      </trkpt>
      <trkpt lat="43.58527" lon="1.42852">
        <ele>144.79125976562</ele>
        <time>2020-05-31T18:06:36.430Z</time>
      </trkpt>
      <trkpt lat="43.58522" lon="1.42868">
        <ele>143.69760131836</ele>
        <time>2020-05-31T18:06:37.419Z</time>
      </trkpt>
      <trkpt lat="43.58506" lon="1.4291">
        <ele>143.02777099609</ele>
        <time>2020-05-31T18:06:38.413Z</time>
      </trkpt>
      <trkpt lat="43.58501" lon="1.42917">
        <ele>143.4662322998</ele>
        <time>2020-05-31T18:06:39.409Z</time>
      </trkpt>
      <trkpt lat="43.58522" lon="1.42939">
        <ele>141.56285095215</ele>
        <time>2020-05-31T18:06:40.409Z</time>
      </trkpt>
      <trkpt lat="43.58522" lon="1.42942">
        <ele>141.52423095703</ele>
        <time>2020-05-31T18:06:41.409Z</time>
      </trkpt>
      <trkpt lat="43.58602" lon="1.42994">
        <ele>141.57682800293</ele>
        <time>2020-05-31T18:06:42.423Z</time>
      </trkpt>
      <trkpt lat="43.58602" lon="1.42994">
        <ele>141.57704162598</ele>
        <time>2020-05-31T18:06:43.437Z</time>
      </trkpt>
      <trkpt lat="43.58791" lon="1.43128">
        <ele>140.44805908203</ele>
        <time>2020-05-31T18:06:44.485Z</time>
      </trkpt>
      <trkpt lat="43.5887" lon="1.43193">
        <ele>143.23327636719</ele>
        <time>2020-05-31T18:06:45.548Z</time>
      </trkpt>
      <trkpt lat="43.5887" lon="1.43193">
        <ele>143.23510742188</ele>
        <time>2020-05-31T18:06:46.611Z</time>
      </trkpt>
      <trkpt lat="43.5887" lon="1.43193">
        <ele>143.2345123291</ele>
        <time>2020-05-31T18:06:47.674Z</time>
      </trkpt>
      <trkpt lat="43.5887" lon="1.43193">
        <ele>143.23510742188</ele>
        <time>2020-05-31T18:06:48.737Z</time>
      </trkpt>
      <trkpt lat="43.58924" lon="1.43238">
        <ele>144.93254089355</ele>
        <time>2020-05-31T18:06:49.810Z</time>
      </trkpt>
      <trkpt lat="43.58927" lon="1.4324">
        <ele>144.95767211914</ele>
        <time>2020-05-31T18:06:50.884Z</time>
      </trkpt>
      <trkpt lat="43.58929" lon="1.43242">
        <ele>144.98341369629</ele>
        <time>2020-05-31T18:06:51.958Z</time>
      </trkpt>
      <trkpt lat="43.58929" lon="1.43242">
        <ele>144.98402404785</ele>
        <time>2020-05-31T18:06:53.032Z</time>
      </trkpt>
      <trkpt lat="43.59118" lon="1.43404">
        <ele>145.72174072266</ele>
        <time>2020-05-31T18:06:54.142Z</time>
      </trkpt>
      <trkpt lat="43.59118" lon="1.43404">
        <ele>145.7261505127</ele>
        <time>2020-05-31T18:06:55.252Z</time>
      </trkpt>
      <trkpt lat="43.59118" lon="1.43404">
        <ele>145.7254486084</ele>
        <time>2020-05-31T18:06:56.362Z</time>
      </trkpt>
      <trkpt lat="43.59208" lon="1.43481">
        <ele>148.33291625977</ele>
        <time>2020-05-31T18:06:57.489Z</time>
      </trkpt>
      <trkpt lat="43.59251" lon="1.43507">
        <ele>143.5087890625</ele>
        <time>2020-05-31T18:06:58.623Z</time>
      </trkpt>
      <trkpt lat="43.59257" lon="1.43498">
        <ele>143.66325378418</ele>
        <time>2020-05-31T18:06:59.759Z</time>
      </trkpt>
      <trkpt lat="43.5926" lon="1.43498">
        <ele>143.43095397949</ele>
        <time>2020-05-31T18:07:00.895Z</time>
      </trkpt>
      <trkpt lat="43.59262" lon="1.43499">
        <ele>143.19985961914</ele>
        <time>2020-05-31T18:07:02.032Z</time>
      </trkpt>
      <trkpt lat="43.59262" lon="1.43499">
        <ele>143.19924926758</ele>
        <time>2020-05-31T18:07:03.169Z</time>
      </trkpt>
      <trkpt lat="43.59272" lon="1.435">
        <ele>142.88031005859</ele>
        <time>2020-05-31T18:07:04.307Z</time>
      </trkpt>
      <trkpt lat="43.59274" lon="1.435">
        <ele>142.98329162598</ele>
        <time>2020-05-31T18:07:05.445Z</time>
      </trkpt>
      <trkpt lat="43.59278" lon="1.43485">
        <ele>144.0126953125</ele>
        <time>2020-05-31T18:07:06.585Z</time>
      </trkpt>
      <trkpt lat="43.59285" lon="1.4348">
        <ele>144.25527954102</ele>
        <time>2020-05-31T18:07:07.727Z</time>
      </trkpt>
      <trkpt lat="43.59288" lon="1.43477">
        <ele>144.37112426758</ele>
        <time>2020-05-31T18:07:08.869Z</time>
      </trkpt>
      <trkpt lat="43.59292" lon="1.43457">
        <ele>144.88592529297</ele>
        <time>2020-05-31T18:07:10.013Z</time>
      </trkpt>
      <trkpt lat="43.59306" lon="1.43436">
        <ele>145.54273986816</ele>
        <time>2020-05-31T18:07:11.161Z</time>
      </trkpt>
      <trkpt lat="43.59315" lon="1.4343">
        <ele>145.43975830078</ele>
        <time>2020-05-31T18:07:12.310Z</time>
      </trkpt>
      <trkpt lat="43.59322" lon="1.43422">
        <ele>145.34965515137</ele>
        <time>2020-05-31T18:07:13.461Z</time>
      </trkpt>
      <trkpt lat="43.59342" lon="1.43409">
        <ele>145.11795043945</ele>
        <time>2020-05-31T18:07:14.615Z</time>
      </trkpt>
      <trkpt lat="43.59354" lon="1.43402">
        <ele>145</ele>
        <time>2020-05-31T18:07:15.771Z</time>
      </trkpt>
      <trkpt lat="43.59354" lon="1.43402">
        <ele>145</ele>
        <time>2020-05-31T18:07:16.927Z</time>
      </trkpt>
      <trkpt lat="43.59385" lon="1.43379">
        <ele>144.04690551758</ele>
        <time>2020-05-31T18:07:18.089Z</time>
      </trkpt>
      <trkpt lat="43.59405" lon="1.43363">
        <ele>143.50625610352</ele>
        <time>2020-05-31T18:07:19.255Z</time>
      </trkpt>
      <trkpt lat="43.59436" lon="1.43341">
        <ele>142.73080444336</ele>
        <time>2020-05-31T18:07:20.426Z</time>
      </trkpt>
      <trkpt lat="43.59444" lon="1.43335">
        <ele>142.97538757324</ele>
        <time>2020-05-31T18:07:21.599Z</time>
      </trkpt>
      <trkpt lat="43.5946" lon="1.43323">
        <ele>143.29801940918</ele>
        <time>2020-05-31T18:07:22.775Z</time>
      </trkpt>
      <trkpt lat="43.5946" lon="1.43323">
        <ele>143.29791259766</ele>
        <time>2020-05-31T18:07:23.951Z</time>
      </trkpt>
      <trkpt lat="43.59515" lon="1.43285">
        <ele>145.39111328125</ele>
        <time>2020-05-31T18:07:25.137Z</time>
      </trkpt>
      <trkpt lat="43.59565" lon="1.43246">
        <ele>145.20239257812</ele>
        <time>2020-05-31T18:07:26.332Z</time>
      </trkpt>
      <trkpt lat="43.5958" lon="1.43234">
        <ele>144.30131530762</ele>
        <time>2020-05-31T18:07:27.530Z</time>
      </trkpt>
      <trkpt lat="43.59599" lon="1.4322">
        <ele>143.11430358887</ele>
        <time>2020-05-31T18:07:28.731Z</time>
      </trkpt>
      <trkpt lat="43.596" lon="1.43219">
        <ele>143.1400604248</ele>
        <time>2020-05-31T18:07:29.932Z</time>
      </trkpt>
      <trkpt lat="43.59604" lon="1.43216">
        <ele>143.17143249512</ele>
        <time>2020-05-31T18:07:31.134Z</time>
      </trkpt>
      <trkpt lat="43.59618" lon="1.43206">
        <ele>143.12004089355</ele>
        <time>2020-05-31T18:07:32.338Z</time>
      </trkpt>
      <trkpt lat="43.59631" lon="1.43201">
        <ele>143.01695251465</ele>
        <time>2020-05-31T18:07:33.545Z</time>
      </trkpt>
      <trkpt lat="43.59708" lon="1.43146">
        <ele>144.91377258301</ele>
        <time>2020-05-31T18:07:34.765Z</time>
      </trkpt>
      <trkpt lat="43.59716" lon="1.4314">
        <ele>144.50184631348</ele>
        <time>2020-05-31T18:07:35.987Z</time>
      </trkpt>
      <trkpt lat="43.59744" lon="1.43121">
        <ele>143.11387634277</ele>
        <time>2020-05-31T18:07:37.214Z</time>
      </trkpt>
      <trkpt lat="43.59744" lon="1.43121">
        <ele>143.11437988281</ele>
        <time>2020-05-31T18:07:38.441Z</time>
      </trkpt>
      <trkpt lat="43.59769" lon="1.43103">
        <ele>141.44874572754</ele>
        <time>2020-05-31T18:07:39.672Z</time>
      </trkpt>
      <trkpt lat="43.59769" lon="1.43103">
        <ele>141.44885253906</ele>
        <time>2020-05-31T18:07:40.903Z</time>
      </trkpt>
      <trkpt lat="43.59777" lon="1.43098">
        <ele>141.28150939941</ele>
        <time>2020-05-31T18:07:42.136Z</time>
      </trkpt>
      <trkpt lat="43.5978" lon="1.43099">
        <ele>141.26863098145</ele>
        <time>2020-05-31T18:07:43.369Z</time>
      </trkpt>
      <trkpt lat="43.59793" lon="1.43093">
        <ele>141.02395629883</ele>
        <time>2020-05-31T18:07:44.605Z</time>
      </trkpt>
      <trkpt lat="43.59793" lon="1.43093">
        <ele>141.02404785156</ele>
        <time>2020-05-31T18:07:45.841Z</time>
      </trkpt>
      <trkpt lat="43.59797" lon="1.43082">
        <ele>141</ele>
        <time>2020-05-31T18:07:47.078Z</time>
      </trkpt>
      <trkpt lat="43.59804" lon="1.43077">
        <ele>141</ele>
        <time>2020-05-31T18:07:48.316Z</time>
      </trkpt>
      <trkpt lat="43.59804" lon="1.43077">
        <ele>141</ele>
        <time>2020-05-31T18:07:49.554Z</time>
      </trkpt>
      <trkpt lat="43.59836" lon="1.43052">
        <ele>141</ele>
        <time>2020-05-31T18:07:50.798Z</time>
      </trkpt>
      <trkpt lat="43.59866" lon="1.43027">
        <ele>141.45991516113</ele>
        <time>2020-05-31T18:07:52.048Z</time>
      </trkpt>
      <trkpt lat="43.59881" lon="1.43015">
        <ele>141.60150146484</ele>
        <time>2020-05-31T18:07:53.301Z</time>
      </trkpt>
      <trkpt lat="43.59898" lon="1.43004">
        <ele>140.86413574219</ele>
        <time>2020-05-31T18:07:54.557Z</time>
      </trkpt>
      <trkpt lat="43.59945" lon="1.42969">
        <ele>139.19367980957</ele>
        <time>2020-05-31T18:07:55.821Z</time>
      </trkpt>
      <trkpt lat="43.59952" lon="1.42965">
        <ele>139.20664978027</ele>
        <time>2020-05-31T18:07:57.086Z</time>
      </trkpt>
      <trkpt lat="43.60027" lon="1.42912">
        <ele>138</ele>
        <time>2020-05-31T18:07:58.365Z</time>
      </trkpt>
      <trkpt lat="43.60065" lon="1.42882">
        <ele>139.51156616211</ele>
        <time>2020-05-31T18:07:59.651Z</time>
      </trkpt>
      <trkpt lat="43.60065" lon="1.42882">
        <ele>139.51135253906</ele>
        <time>2020-05-31T18:08:00.937Z</time>
      </trkpt>
      <trkpt lat="43.6009" lon="1.42864">
        <ele>140.54135131836</ele>
        <time>2020-05-31T18:08:02.227Z</time>
      </trkpt>
      <trkpt lat="43.60094" lon="1.42862">
        <ele>140.69561767578</ele>
        <time>2020-05-31T18:08:03.518Z</time>
      </trkpt>
      <trkpt lat="43.60195" lon="1.42794">
        <ele>142.91627502441</ele>
        <time>2020-05-31T18:08:04.827Z</time>
      </trkpt>
      <trkpt lat="43.60211" lon="1.42793">
        <ele>138.9644317627</ele>
        <time>2020-05-31T18:08:06.139Z</time>
      </trkpt>
      <trkpt lat="43.60434" lon="1.42808">
        <ele>140.87756347656</ele>
        <time>2020-05-31T18:08:07.486Z</time>
      </trkpt>
      <trkpt lat="43.60443" lon="1.42809">
        <ele>141.42938232422</ele>
        <time>2020-05-31T18:08:08.835Z</time>
      </trkpt>
      <trkpt lat="43.60537" lon="1.42816">
        <ele>144.77381896973</ele>
        <time>2020-05-31T18:08:10.199Z</time>
      </trkpt>
      <trkpt lat="43.60537" lon="1.42816">
        <ele>144.77391052246</ele>
        <time>2020-05-31T18:08:11.563Z</time>
      </trkpt>
      <trkpt lat="43.60548" lon="1.42817">
        <ele>144.63221740723</ele>
        <time>2020-05-31T18:08:12.929Z</time>
      </trkpt>
      <trkpt lat="43.60553" lon="1.42817">
        <ele>144.56785583496</ele>
        <time>2020-05-31T18:08:14.295Z</time>
      </trkpt>
      <trkpt lat="43.60594" lon="1.4282">
        <ele>144.04019165039</ele>
        <time>2020-05-31T18:08:15.668Z</time>
      </trkpt>
      <trkpt lat="43.60595" lon="1.42811">
        <ele>143.84242248535</ele>
        <time>2020-05-31T18:08:17.042Z</time>
      </trkpt>
      <trkpt lat="43.60596" lon="1.42805">
        <ele>143.46307373047</ele>
        <time>2020-05-31T18:08:18.417Z</time>
      </trkpt>
      <trkpt lat="43.60596" lon="1.42801">
        <ele>143.1544342041</ele>
        <time>2020-05-31T18:08:19.792Z</time>
      </trkpt>
      <trkpt lat="43.60602" lon="1.42752">
        <ele>139.38401794434</ele>
        <time>2020-05-31T18:08:21.173Z</time>
      </trkpt>
      <trkpt lat="43.60611" lon="1.42684">
        <ele>137.28247070312</ele>
        <time>2020-05-31T18:08:22.562Z</time>
      </trkpt>
      <trkpt lat="43.60622" lon="1.42608">
        <ele>137.94165039062</ele>
        <time>2020-05-31T18:08:23.960Z</time>
      </trkpt>
      <trkpt lat="43.60622" lon="1.42608">
        <ele>137.94125366211</ele>
        <time>2020-05-31T18:08:25.358Z</time>
      </trkpt>
      <trkpt lat="43.60625" lon="1.42585">
        <ele>138.43240356445</ele>
        <time>2020-05-31T18:08:26.759Z</time>
      </trkpt>
      <trkpt lat="43.60625" lon="1.42585">
        <ele>138.43249511719</ele>
        <time>2020-05-31T18:08:28.160Z</time>
      </trkpt>
      <trkpt lat="43.60629" lon="1.42542">
        <ele>137.39273071289</ele>
        <time>2020-05-31T18:08:29.566Z</time>
      </trkpt>
      <trkpt lat="43.60628" lon="1.42488">
        <ele>136.74911499023</ele>
        <time>2020-05-31T18:08:30.978Z</time>
      </trkpt>
      <trkpt lat="43.60628" lon="1.42436">
        <ele>135.57859802246</ele>
        <time>2020-05-31T18:08:32.396Z</time>
      </trkpt>
      <trkpt lat="43.60628" lon="1.42436">
        <ele>135.57870483398</ele>
        <time>2020-05-31T18:08:33.814Z</time>
      </trkpt>
      <trkpt lat="43.60626" lon="1.42258">
        <ele>138.29028320312</ele>
        <time>2020-05-31T18:08:35.253Z</time>
      </trkpt>
      <trkpt lat="43.60631" lon="1.4221">
        <ele>137.19383239746</ele>
        <time>2020-05-31T18:08:36.697Z</time>
      </trkpt>
      <trkpt lat="43.60647" lon="1.4209">
        <ele>138.38502502441</ele>
        <time>2020-05-31T18:08:38.156Z</time>
      </trkpt>
      <trkpt lat="43.60656" lon="1.42063">
        <ele>138.3016204834</ele>
        <time>2020-05-31T18:08:39.618Z</time>
      </trkpt>
      <trkpt lat="43.60654" lon="1.42043">
        <ele>138.24993896484</ele>
        <time>2020-05-31T18:08:41.082Z</time>
      </trkpt>
      <trkpt lat="43.60716" lon="1.41888">
        <ele>135.87359619141</ele>
        <time>2020-05-31T18:08:42.567Z</time>
      </trkpt>
      <trkpt lat="43.60847" lon="1.41632">
        <ele>136.94200134277</ele>
        <time>2020-05-31T18:08:44.088Z</time>
      </trkpt>
      <trkpt lat="43.60861" lon="1.41612">
        <ele>136.89065551758</ele>
        <time>2020-05-31T18:08:45.613Z</time>
      </trkpt>
      <trkpt lat="43.60888" lon="1.41586">
        <ele>136.74761962891</ele>
        <time>2020-05-31T18:08:47.143Z</time>
      </trkpt>
      <trkpt lat="43.60978" lon="1.41513">
        <ele>137.75834655762</ele>
        <time>2020-05-31T18:08:48.690Z</time>
      </trkpt>
      <trkpt lat="43.6098" lon="1.41487">
        <ele>138.42771911621</ele>
        <time>2020-05-31T18:08:50.240Z</time>
      </trkpt>
      <trkpt lat="43.60973" lon="1.41445">
        <ele>138.00129699707</ele>
        <time>2020-05-31T18:08:51.795Z</time>
      </trkpt>
      <trkpt lat="43.60935" lon="1.41369">
        <ele>136.60986328125</ele>
        <time>2020-05-31T18:08:53.360Z</time>
      </trkpt>
      <trkpt lat="43.60933" lon="1.41339">
        <ele>135.94171142578</ele>
        <time>2020-05-31T18:08:54.929Z</time>
      </trkpt>
      <trkpt lat="43.60967" lon="1.41275">
        <ele>136.7674407959</ele>
        <time>2020-05-31T18:08:56.507Z</time>
      </trkpt>
      <trkpt lat="43.60975" lon="1.41272">
        <ele>136.94364929199</ele>
        <time>2020-05-31T18:08:58.086Z</time>
      </trkpt>
      <trkpt lat="43.60975" lon="1.41272">
        <ele>136.94564819336</ele>
        <time>2020-05-31T18:08:59.665Z</time>
      </trkpt>
      <trkpt lat="43.60975" lon="1.41271">
        <ele>136.94705200195</ele>
        <time>2020-05-31T18:09:01.244Z</time>
      </trkpt>
      <trkpt lat="43.60978" lon="1.4127">
        <ele>136.85255432129</ele>
        <time>2020-05-31T18:09:02.824Z</time>
      </trkpt>
      <trkpt lat="43.6099" lon="1.41277">
        <ele>136.98118591309</ele>
        <time>2020-05-31T18:09:04.406Z</time>
      </trkpt>
      <trkpt lat="43.61019" lon="1.41341">
        <ele>137.99839782715</ele>
        <time>2020-05-31T18:09:05.997Z</time>
      </trkpt>
      <trkpt lat="43.61038" lon="1.41374">
        <ele>137.76658630371</ele>
        <time>2020-05-31T18:09:07.593Z</time>
      </trkpt>
      <trkpt lat="43.6108" lon="1.41421">
        <ele>137.80470275879</ele>
        <time>2020-05-31T18:09:09.197Z</time>
      </trkpt>
      <trkpt lat="43.61109" lon="1.41425">
        <ele>137.56002807617</ele>
        <time>2020-05-31T18:09:10.806Z</time>
      </trkpt>
      <trkpt lat="43.61109" lon="1.41425">
        <ele>137.5601348877</ele>
        <time>2020-05-31T18:09:12.415Z</time>
      </trkpt>
      <trkpt lat="43.61128" lon="1.41442">
        <ele>137.71459960938</ele>
        <time>2020-05-31T18:09:14.028Z</time>
      </trkpt>
      <trkpt lat="43.61145" lon="1.41474">
        <ele>138.28099060059</ele>
        <time>2020-05-31T18:09:15.645Z</time>
      </trkpt>
      <trkpt lat="43.61152" lon="1.41477">
        <ele>138.28088378906</ele>
        <time>2020-05-31T18:09:17.263Z</time>
      </trkpt>
      <trkpt lat="43.61161" lon="1.41476">
        <ele>138.13938903809</ele>
        <time>2020-05-31T18:09:18.883Z</time>
      </trkpt>
      <trkpt lat="43.61182" lon="1.41399">
        <ele>136.04138183594</ele>
        <time>2020-05-31T18:09:20.512Z</time>
      </trkpt>
      <trkpt lat="43.61226" lon="1.41334">
        <ele>135.51391601562</ele>
        <time>2020-05-31T18:09:22.152Z</time>
      </trkpt>
      <trkpt lat="43.61255" lon="1.413">
        <ele>135.01820373535</ele>
        <time>2020-05-31T18:09:23.798Z</time>
      </trkpt>
      <trkpt lat="43.61303" lon="1.41248">
        <ele>135.58720397949</ele>
        <time>2020-05-31T18:09:25.454Z</time>
      </trkpt>
      <trkpt lat="43.61311" lon="1.41242">
        <ele>135.49699401855</ele>
        <time>2020-05-31T18:09:27.111Z</time>
      </trkpt>
      <trkpt lat="43.61387" lon="1.41164">
        <ele>135.58303833008</ele>
        <time>2020-05-31T18:09:28.783Z</time>
      </trkpt>
      <trkpt lat="43.61387" lon="1.41164">
        <ele>135.5831451416</ele>
        <time>2020-05-31T18:09:30.455Z</time>
      </trkpt>
      <trkpt lat="43.61402" lon="1.41149">
        <ele>135.40292358398</ele>
        <time>2020-05-31T18:09:32.130Z</time>
      </trkpt>
      <trkpt lat="43.61422" lon="1.41126">
        <ele>135.26991271973</ele>
        <time>2020-05-31T18:09:33.809Z</time>
      </trkpt>
      <trkpt lat="43.61451" lon="1.41097">
        <ele>135.42816162109</ele>
        <time>2020-05-31T18:09:35.494Z</time>
      </trkpt>
      <trkpt lat="43.61478" lon="1.41069">
        <ele>135.44104003906</ele>
        <time>2020-05-31T18:09:37.184Z</time>
      </trkpt>
      <trkpt lat="43.61478" lon="1.41069">
        <ele>135.4411315918</ele>
        <time>2020-05-31T18:09:38.874Z</time>
      </trkpt>
      <trkpt lat="43.61549" lon="1.40991">
        <ele>135.81004333496</ele>
        <time>2020-05-31T18:09:40.579Z</time>
      </trkpt>
      <trkpt lat="43.61585" lon="1.40952">
        <ele>134</ele>
        <time>2020-05-31T18:09:42.291Z</time>
      </trkpt>
      <trkpt lat="43.61623" lon="1.40914">
        <ele>133.38850402832</ele>
        <time>2020-05-31T18:09:44.011Z</time>
      </trkpt>
      <trkpt lat="43.61639" lon="1.40895">
        <ele>133.59550476074</ele>
        <time>2020-05-31T18:09:45.734Z</time>
      </trkpt>
      <trkpt lat="43.6165" lon="1.40883">
        <ele>133.62124633789</ele>
        <time>2020-05-31T18:09:47.459Z</time>
      </trkpt>
      <trkpt lat="43.61655" lon="1.40877">
        <ele>133.62135314941</ele>
        <time>2020-05-31T18:09:49.186Z</time>
      </trkpt>
      <trkpt lat="43.61659" lon="1.40873">
        <ele>133.62124633789</ele>
        <time>2020-05-31T18:09:50.913Z</time>
      </trkpt>
      <trkpt lat="43.61659" lon="1.40873">
        <ele>133.62135314941</ele>
        <time>2020-05-31T18:09:52.640Z</time>
      </trkpt>
      <trkpt lat="43.61669" lon="1.40861">
        <ele>133.64698791504</ele>
        <time>2020-05-31T18:09:54.369Z</time>
      </trkpt>
      <trkpt lat="43.61695" lon="1.40832">
        <ele>133.79696655273</ele>
        <time>2020-05-31T18:09:56.104Z</time>
      </trkpt>
      <trkpt lat="43.61703" lon="1.40825">
        <ele>133.88706970215</ele>
        <time>2020-05-31T18:09:57.840Z</time>
      </trkpt>
      <trkpt lat="43.61719" lon="1.40817">
        <ele>133.97717285156</ele>
        <time>2020-05-31T18:09:59.579Z</time>
      </trkpt>
      <trkpt lat="43.61729" lon="1.40827">
        <ele>133.861328125</ele>
        <time>2020-05-31T18:10:01.320Z</time>
      </trkpt>
      <trkpt lat="43.61738" lon="1.40818">
        <ele>133.96430969238</ele>
        <time>2020-05-31T18:10:03.063Z</time>
      </trkpt>
      <trkpt lat="43.61746" lon="1.40818">
        <ele>133.96430969238</ele>
        <time>2020-05-31T18:10:04.807Z</time>
      </trkpt>
      <trkpt lat="43.61871" lon="1.40817">
        <ele>132.2452545166</ele>
        <time>2020-05-31T18:10:06.571Z</time>
      </trkpt>
      <trkpt lat="43.61887" lon="1.40818">
        <ele>132.45121765137</ele>
        <time>2020-05-31T18:10:08.338Z</time>
      </trkpt>
      <trkpt lat="43.61914" lon="1.40818">
        <ele>132.7730255127</ele>
        <time>2020-05-31T18:10:10.109Z</time>
      </trkpt>
      <trkpt lat="43.61945" lon="1.40818">
        <ele>133</ele>
        <time>2020-05-31T18:10:11.885Z</time>
      </trkpt>
      <trkpt lat="43.61946" lon="1.40818">
        <ele>133</ele>
        <time>2020-05-31T18:10:13.661Z</time>
      </trkpt>
      <trkpt lat="43.61954" lon="1.40818">
        <ele>133</ele>
        <time>2020-05-31T18:10:15.438Z</time>
      </trkpt>
      <trkpt lat="43.62004" lon="1.40819">
        <ele>133</ele>
        <time>2020-05-31T18:10:17.223Z</time>
      </trkpt>
      <trkpt lat="43.62008" lon="1.40819">
        <ele>133</ele>
        <time>2020-05-31T18:10:19.009Z</time>
      </trkpt>
      <trkpt lat="43.62145" lon="1.40819">
        <ele>132</ele>
        <time>2020-05-31T18:10:20.817Z</time>
      </trkpt>
      <trkpt lat="43.62145" lon="1.40819">
        <ele>132</ele>
        <time>2020-05-31T18:10:22.625Z</time>
      </trkpt>
      <trkpt lat="43.62231" lon="1.40819">
        <ele>131.95143127441</ele>
        <time>2020-05-31T18:10:24.447Z</time>
      </trkpt>
    </trkseg>
  </trk>
</gpx>